sensor_id;sensor_type;location;lat;lon;timestamp;pressure;altitude;pressure_sealevel;temperature;humidity
6032;BME280;3044;43.232;27.972;2024-01-16T00:02:10;45136.66;;;-143.84;76.62
6032;BME280;3044;43.232;27.972;2024-01-16T00:04:37;45148.09;;;-143.84;77.46
6032;BME280;3044;43.232;27.972;2024-01-16T00:07:06;45155.69;;;-143.84;77.43
6032;BME280;3044;43.232;27.972;2024-01-16T00:09:34;45165.22;;;-143.84;77.17
6032;BME280;3044;43.232;27.972;2024-01-16T00:12:02;45159.50;;;-143.84;77.87
6032;BME280;3044;43.232;27.972;2024-01-16T00:14:29;45189.97;;;-143.84;78.04
6032;BME280;3044;43.232;27.972;2024-01-16T00:16:56;45148.09;;;-143.84;78.24
6032;BME280;3044;43.232;27.972;2024-01-16T00:19:23;45155.69;;;-143.84;78.42
6032;BME280;3044;43.232;27.972;2024-01-16T00:21:50;45186.16;;;-143.84;78.72
6032;BME280;3044;43.232;27.972;2024-01-16T00:24:19;45130.94;;;-143.84;79.61
6032;BME280;3044;43.232;27.972;2024-01-16T00:26:46;45167.13;;;-143.84;80.03
6032;BME280;3044;43.232;27.972;2024-01-16T00:29:15;45163.31;;;-143.84;80.91
6032;BME280;3044;43.232;27.972;2024-01-16T00:31:42;45151.91;;;-143.84;81.22
6032;BME280;3044;43.232;27.972;2024-01-16T00:34:09;45150.00;;;-143.84;80.83
6032;BME280;3044;43.232;27.972;2024-01-16T00:36:36;45155.69;;;-143.84;81.30
6032;BME280;3044;43.232;27.972;2024-01-16T00:39:03;45165.22;;;-143.84;81.44
6032;BME280;3044;43.232;27.972;2024-01-16T00:41:32;45121.44;;;-143.84;80.91
6032;BME280;3044;43.232;27.972;2024-01-16T00:43:59;45165.22;;;-143.84;80.76
6032;BME280;3044;43.232;27.972;2024-01-16T00:46:26;45153.81;;;-143.84;81.43
6032;BME280;3044;43.232;27.972;2024-01-16T00:48:53;45144.28;;;-143.84;82.21
6032;BME280;3044;43.232;27.972;2024-01-16T00:51:20;45150.00;;;-143.84;82.56
6032;BME280;3044;43.232;27.972;2024-01-16T00:53:48;45150.00;;;-143.84;83.12
6032;BME280;3044;43.232;27.972;2024-01-16T00:56:15;45170.94;;;-143.84;83.37
6032;BME280;3044;43.232;27.972;2024-01-16T00:58:43;45151.91;;;-143.84;83.41
6032;BME280;3044;43.232;27.972;2024-01-16T01:01:10;45176.66;;;-143.84;82.52
6032;BME280;3044;43.232;27.972;2024-01-16T01:03:37;45157.59;;;-143.84;82.39
6032;BME280;3044;43.232;27.972;2024-01-16T01:06:05;45243.31;;;-143.84;83.45
6032;BME280;3044;43.232;27.972;2024-01-16T01:08:32;45169.03;;;-143.84;83.31
6032;BME280;3044;43.232;27.972;2024-01-16T01:10:59;45159.50;;;-143.84;83.30
6032;BME280;3044;43.232;27.972;2024-01-16T01:13:27;45159.50;;;-143.84;83.07
6032;BME280;3044;43.232;27.972;2024-01-16T01:15:55;45169.03;;;-143.84;83.22
6032;BME280;3044;43.232;27.972;2024-01-16T01:18:23;45146.19;;;-143.84;83.14
6032;BME280;3044;43.232;27.972;2024-01-16T01:20:50;45169.03;;;-143.84;82.38
6032;BME280;3044;43.232;27.972;2024-01-16T01:23:17;45159.50;;;-143.84;82.57
6032;BME280;3044;43.232;27.972;2024-01-16T01:25:44;45163.31;;;-143.84;82.81
6032;BME280;3044;43.232;27.972;2024-01-16T01:28:11;45172.84;;;-143.84;82.59
6032;BME280;3044;43.232;27.972;2024-01-16T01:30:38;45167.13;;;-143.84;82.32
6032;BME280;3044;43.232;27.972;2024-01-16T01:33:07;45159.50;;;-143.84;82.18
6032;BME280;3044;43.232;27.972;2024-01-16T01:35:34;45144.28;;;-143.84;82.37
6032;BME280;3044;43.232;27.972;2024-01-16T01:38:01;45134.75;;;-143.84;82.44
6032;BME280;3044;43.232;27.972;2024-01-16T01:40:28;45148.09;;;-143.84;81.90
6032;BME280;3044;43.232;27.972;2024-01-16T01:42:55;45159.50;;;-143.84;81.96
6032;BME280;3044;43.232;27.972;2024-01-16T01:45:23;45178.56;;;-143.84;81.77
6032;BME280;3044;43.232;27.972;2024-01-16T01:47:50;45155.69;;;-143.84;82.13
6032;BME280;3044;43.232;27.972;2024-01-16T01:50:19;45186.16;;;-143.84;81.98
6032;BME280;3044;43.232;27.972;2024-01-16T01:52:46;45144.28;;;-143.84;82.00
6032;BME280;3044;43.232;27.972;2024-01-16T01:55:14;45150.00;;;-143.84;81.62
6032;BME280;3044;43.232;27.972;2024-01-16T01:57:42;45130.94;;;-143.84;81.41
6032;BME280;3044;43.232;27.972;2024-01-16T02:00:10;45138.56;;;-143.84;81.52
6032;BME280;3044;43.232;27.972;2024-01-16T02:02:38;45151.91;;;-143.84;81.35
6032;BME280;3044;43.232;27.972;2024-01-16T02:05:07;45155.69;;;-143.84;81.58
6032;BME280;3044;43.232;27.972;2024-01-16T02:07:36;45142.38;;;-143.84;81.27
6032;BME280;3044;43.232;27.972;2024-01-16T02:10:03;45136.66;;;-143.84;81.42
6032;BME280;3044;43.232;27.972;2024-01-16T02:12:30;45146.19;;;-143.84;80.88
6032;BME280;3044;43.232;27.972;2024-01-16T02:14:58;45150.00;;;-143.84;80.37
6032;BME280;3044;43.232;27.972;2024-01-16T02:17:25;45134.75;;;-143.84;79.79
6032;BME280;3044;43.232;27.972;2024-01-16T02:19:52;45146.19;;;-143.84;79.31
6032;BME280;3044;43.232;27.972;2024-01-16T02:22:20;45155.69;;;-143.84;79.37
6032;BME280;3044;43.232;27.972;2024-01-16T02:24:49;45176.66;;;-143.84;79.19
6032;BME280;3044;43.232;27.972;2024-01-16T02:27:17;45130.94;;;-143.84;79.90
6032;BME280;3044;43.232;27.972;2024-01-16T02:29:44;45155.69;;;-143.84;80.76
6032;BME280;3044;43.232;27.972;2024-01-16T02:32:12;45144.28;;;-143.84;80.99
6032;BME280;3044;43.232;27.972;2024-01-16T02:34:40;45148.09;;;-143.84;81.52
6032;BME280;3044;43.232;27.972;2024-01-16T02:37:07;45155.69;;;-143.84;82.25
6032;BME280;3044;43.232;27.972;2024-01-16T02:39:34;45159.50;;;-143.84;82.72
6032;BME280;3044;43.232;27.972;2024-01-16T02:42:03;45150.00;;;-143.84;82.62
6032;BME280;3044;43.232;27.972;2024-01-16T02:44:31;45148.09;;;-143.84;82.71
6032;BME280;3044;43.232;27.972;2024-01-16T02:46:58;45161.41;;;-143.84;81.83
6032;BME280;3044;43.232;27.972;2024-01-16T02:49:26;45150.00;;;-143.84;81.69
6032;BME280;3044;43.232;27.972;2024-01-16T02:51:53;45155.69;;;-143.84;81.08
6032;BME280;3044;43.232;27.972;2024-01-16T02:54:20;45151.91;;;-143.84;80.94
6032;BME280;3044;43.232;27.972;2024-01-16T02:56:47;45167.13;;;-143.84;80.87
6032;BME280;3044;43.232;27.972;2024-01-16T02:59:16;45144.28;;;-143.84;81.06
6032;BME280;3044;43.232;27.972;2024-01-16T03:01:43;45182.38;;;-143.84;80.88
6032;BME280;3044;43.232;27.972;2024-01-16T03:04:10;45146.19;;;-143.84;80.68
6032;BME280;3044;43.232;27.972;2024-01-16T03:06:37;45172.84;;;-143.84;80.52
6032;BME280;3044;43.232;27.972;2024-01-16T03:09:05;45148.09;;;-143.84;80.62
6032;BME280;3044;43.232;27.972;2024-01-16T03:11:32;45170.94;;;-143.84;80.76
6032;BME280;3044;43.232;27.972;2024-01-16T03:13:59;45167.13;;;-143.84;80.60
6032;BME280;3044;43.232;27.972;2024-01-16T03:16:28;45155.69;;;-143.84;80.76
6032;BME280;3044;43.232;27.972;2024-01-16T03:18:55;45182.38;;;-143.84;80.67
6032;BME280;3044;43.232;27.972;2024-01-16T03:21:23;45167.13;;;-143.84;80.62
6032;BME280;3044;43.232;27.972;2024-01-16T03:23:50;45144.28;;;-143.84;80.29
6032;BME280;3044;43.232;27.972;2024-01-16T03:26:17;45146.19;;;-143.84;80.25
6032;BME280;3044;43.232;27.972;2024-01-16T03:28:44;45142.38;;;-143.84;79.52
6032;BME280;3044;43.232;27.972;2024-01-16T03:31:13;45144.28;;;-143.84;79.48
6032;BME280;3044;43.232;27.972;2024-01-16T03:33:42;45153.81;;;-143.84;78.75
6032;BME280;3044;43.232;27.972;2024-01-16T03:36:09;45142.38;;;-143.84;79.01
6032;BME280;3044;43.232;27.972;2024-01-16T03:38:38;45161.41;;;-143.84;78.94
6032;BME280;3044;43.232;27.972;2024-01-16T03:41:05;45161.41;;;-143.84;78.71
6032;BME280;3044;43.232;27.972;2024-01-16T03:43:33;45163.31;;;-143.84;78.09
6032;BME280;3044;43.232;27.972;2024-01-16T03:46:01;45170.94;;;-143.84;77.67
6032;BME280;3044;43.232;27.972;2024-01-16T03:48:28;45163.31;;;-143.84;77.77
6032;BME280;3044;43.232;27.972;2024-01-16T03:50:57;45161.41;;;-143.84;77.47
6032;BME280;3044;43.232;27.972;2024-01-16T03:53:24;45136.66;;;-143.84;77.35
6032;BME280;3044;43.232;27.972;2024-01-16T03:55:51;45148.09;;;-143.84;77.09
6032;BME280;3044;43.232;27.972;2024-01-16T03:58:18;45155.69;;;-143.84;76.87
6032;BME280;3044;43.232;27.972;2024-01-16T04:00:46;45142.38;;;-143.84;76.69
6032;BME280;3044;43.232;27.972;2024-01-16T04:03:16;45153.81;;;-143.84;76.61
6032;BME280;3044;43.232;27.972;2024-01-16T04:05:43;45167.13;;;-143.84;76.45
6032;BME280;3044;43.232;27.972;2024-01-16T04:08:11;45165.22;;;-143.84;76.77
6032;BME280;3044;43.232;27.972;2024-01-16T04:10:39;45153.81;;;-143.84;76.53
6032;BME280;3044;43.232;27.972;2024-01-16T04:13:08;45134.75;;;-143.84;76.39
6032;BME280;3044;43.232;27.972;2024-01-16T04:15:37;45129.03;;;-143.84;76.58
6032;BME280;3044;43.232;27.972;2024-01-16T04:18:05;45151.91;;;-143.84;76.46
6032;BME280;3044;43.232;27.972;2024-01-16T04:20:32;45193.78;;;-143.84;76.32
6032;BME280;3044;43.232;27.972;2024-01-16T04:22:59;45129.03;;;-143.84;76.18
6032;BME280;3044;43.232;27.972;2024-01-16T04:25:28;45151.91;;;-143.84;76.25
6032;BME280;3044;43.232;27.972;2024-01-16T04:27:55;45140.47;;;-143.84;76.00
6032;BME280;3044;43.232;27.972;2024-01-16T04:30:22;45155.69;;;-143.84;75.99
6032;BME280;3044;43.232;27.972;2024-01-16T04:32:49;45169.03;;;-143.84;76.21
6032;BME280;3044;43.232;27.972;2024-01-16T04:35:16;45148.09;;;-143.84;76.04
6032;BME280;3044;43.232;27.972;2024-01-16T04:37:43;45129.03;;;-143.84;75.81
6032;BME280;3044;43.232;27.972;2024-01-16T04:40:11;45188.06;;;-143.84;75.50
6032;BME280;3044;43.232;27.972;2024-01-16T04:42:39;45167.13;;;-143.84;75.34
6032;BME280;3044;43.232;27.972;2024-01-16T04:45:08;45138.56;;;-143.84;74.25
6032;BME280;3044;43.232;27.972;2024-01-16T04:47:35;45148.09;;;-143.84;73.99
6032;BME280;3044;43.232;27.972;2024-01-16T04:50:03;45159.50;;;-143.84;73.01
6032;BME280;3044;43.232;27.972;2024-01-16T04:52:30;45167.13;;;-143.84;72.20
6032;BME280;3044;43.232;27.972;2024-01-16T04:54:57;45130.94;;;-143.84;71.96
6032;BME280;3044;43.232;27.972;2024-01-16T04:57:25;45150.00;;;-143.84;71.39
6032;BME280;3044;43.232;27.972;2024-01-16T04:59:53;45157.59;;;-143.84;71.03
6032;BME280;3044;43.232;27.972;2024-01-16T05:02:20;45136.66;;;-143.84;70.25
6032;BME280;3044;43.232;27.972;2024-01-16T05:04:48;45130.94;;;-143.84;69.32
6032;BME280;3044;43.232;27.972;2024-01-16T05:07:17;45138.56;;;-143.84;68.84
6032;BME280;3044;43.232;27.972;2024-01-16T05:09:46;45148.09;;;-143.84;68.89
6032;BME280;3044;43.232;27.972;2024-01-16T05:12:13;45155.69;;;-143.84;68.66
6032;BME280;3044;43.232;27.972;2024-01-16T05:14:40;45148.09;;;-143.84;68.57
6032;BME280;3044;43.232;27.972;2024-01-16T05:17:09;45153.81;;;-143.84;68.01
6032;BME280;3044;43.232;27.972;2024-01-16T05:19:36;45134.75;;;-143.84;67.52
6032;BME280;3044;43.232;27.972;2024-01-16T05:22:03;45132.84;;;-143.84;66.83
6032;BME280;3044;43.232;27.972;2024-01-16T05:24:30;45151.91;;;-143.84;67.08
6032;BME280;3044;43.232;27.972;2024-01-16T05:26:58;45150.00;;;-143.84;66.58
6032;BME280;3044;43.232;27.972;2024-01-16T05:29:25;45169.03;;;-143.84;66.81
6032;BME280;3044;43.232;27.972;2024-01-16T05:31:52;45138.56;;;-143.84;66.69
6032;BME280;3044;43.232;27.972;2024-01-16T05:34:20;45142.38;;;-143.84;66.13
6032;BME280;3044;43.232;27.972;2024-01-16T05:36:47;45161.41;;;-143.84;66.36
6032;BME280;3044;43.232;27.972;2024-01-16T05:39:14;45151.91;;;-143.84;66.35
6032;BME280;3044;43.232;27.972;2024-01-16T05:41:42;45142.38;;;-143.84;66.65
6032;BME280;3044;43.232;27.972;2024-01-16T05:44:09;45157.59;;;-143.84;66.82
6032;BME280;3044;43.232;27.972;2024-01-16T05:46:37;45144.28;;;-143.84;67.28
6032;BME280;3044;43.232;27.972;2024-01-16T05:49:04;45129.03;;;-143.84;66.83
6032;BME280;3044;43.232;27.972;2024-01-16T05:51:32;45170.94;;;-143.84;66.50
6032;BME280;3044;43.232;27.972;2024-01-16T05:53:59;45140.47;;;-143.84;66.21
6032;BME280;3044;43.232;27.972;2024-01-16T05:56:26;45144.28;;;-143.84;66.47
6032;BME280;3044;43.232;27.972;2024-01-16T05:58:54;45146.19;;;-143.84;66.56
6032;BME280;3044;43.232;27.972;2024-01-16T06:01:21;45148.09;;;-143.84;66.30
6032;BME280;3044;43.232;27.972;2024-01-16T06:03:48;45140.47;;;-143.84;66.73
6032;BME280;3044;43.232;27.972;2024-01-16T06:06:15;45134.75;;;-143.84;66.67
6032;BME280;3044;43.232;27.972;2024-01-16T06:08:44;45153.81;;;-143.84;66.84
6032;BME280;3044;43.232;27.972;2024-01-16T06:11:11;45159.50;;;-143.84;66.70
6032;BME280;3044;43.232;27.972;2024-01-16T06:13:38;45148.09;;;-143.84;66.70
6032;BME280;3044;43.232;27.972;2024-01-16T06:16:06;45144.28;;;-143.84;67.14
6032;BME280;3044;43.232;27.972;2024-01-16T06:18:33;45151.91;;;-143.84;67.11
6032;BME280;3044;43.232;27.972;2024-01-16T06:21:01;45146.19;;;-143.84;67.84
6032;BME280;3044;43.232;27.972;2024-01-16T06:23:28;45153.81;;;-143.84;67.92
6032;BME280;3044;43.232;27.972;2024-01-16T06:25:57;45132.84;;;-143.84;67.69
6032;BME280;3044;43.232;27.972;2024-01-16T06:28:24;45140.47;;;-143.84;68.00
6032;BME280;3044;43.232;27.972;2024-01-16T06:30:51;45155.69;;;-143.84;68.26
6032;BME280;3044;43.232;27.972;2024-01-16T06:33:18;45167.13;;;-143.84;69.17
6032;BME280;3044;43.232;27.972;2024-01-16T06:35:45;45150.00;;;-143.84;69.63
6032;BME280;3044;43.232;27.972;2024-01-16T06:38:13;45146.19;;;-143.84;70.14
6032;BME280;3044;43.232;27.972;2024-01-16T06:40:40;45153.81;;;-143.84;70.56
6032;BME280;3044;43.232;27.972;2024-01-16T06:43:09;45184.25;;;-143.84;70.14
6032;BME280;3044;43.232;27.972;2024-01-16T06:45:36;45146.19;;;-143.84;70.23
6032;BME280;3044;43.232;27.972;2024-01-16T06:48:04;45148.09;;;-143.84;70.33
6032;BME280;3044;43.232;27.972;2024-01-16T06:50:31;45142.38;;;-143.84;69.92
6032;BME280;3044;43.232;27.972;2024-01-16T06:52:58;45161.41;;;-143.84;69.94
6032;BME280;3044;43.232;27.972;2024-01-16T06:55:25;45165.22;;;-143.84;69.86
6032;BME280;3044;43.232;27.972;2024-01-16T06:57:52;45157.59;;;-143.84;70.25
6032;BME280;3044;43.232;27.972;2024-01-16T07:00:21;45136.66;;;-143.84;70.26
6032;BME280;3044;43.232;27.972;2024-01-16T07:02:51;45170.94;;;-143.84;69.74
6032;BME280;3044;43.232;27.972;2024-01-16T07:05:19;45172.84;;;-143.84;69.54
6032;BME280;3044;43.232;27.972;2024-01-16T07:07:47;45178.56;;;-143.84;69.94
6032;BME280;3044;43.232;27.972;2024-01-16T07:10:14;45142.38;;;-143.84;70.04
6032;BME280;3044;43.232;27.972;2024-01-16T07:12:45;45151.91;;;-143.84;70.39
6032;BME280;3044;43.232;27.972;2024-01-16T07:15:13;45167.13;;;-143.84;70.98
6032;BME280;3044;43.232;27.972;2024-01-16T07:17:42;45148.09;;;-143.84;70.77
6032;BME280;3044;43.232;27.972;2024-01-16T07:20:10;45180.47;;;-143.84;71.55
6032;BME280;3044;43.232;27.972;2024-01-16T07:22:37;45125.22;;;-143.84;71.36
6032;BME280;3044;43.232;27.972;2024-01-16T07:25:05;45172.84;;;-143.84;71.50
6032;BME280;3044;43.232;27.972;2024-01-16T07:27:32;45150.00;;;-143.84;70.57
6032;BME280;3044;43.232;27.972;2024-01-16T07:29:59;45140.47;;;-143.84;70.25
6032;BME280;3044;43.232;27.972;2024-01-16T07:32:27;45155.69;;;-143.84;71.05
6032;BME280;3044;43.232;27.972;2024-01-16T07:34:55;45176.66;;;-143.84;70.50
6032;BME280;3044;43.232;27.972;2024-01-16T07:37:22;45186.16;;;-143.84;70.80
6032;BME280;3044;43.232;27.972;2024-01-16T07:39:50;45170.94;;;-143.84;70.92
6032;BME280;3044;43.232;27.972;2024-01-16T07:42:17;45151.91;;;-143.84;70.71
6032;BME280;3044;43.232;27.972;2024-01-16T07:44:44;45159.50;;;-143.84;70.98
6032;BME280;3044;43.232;27.972;2024-01-16T07:47:11;45163.31;;;-143.84;71.24
6032;BME280;3044;43.232;27.972;2024-01-16T07:49:38;45159.50;;;-143.84;71.17
6032;BME280;3044;43.232;27.972;2024-01-16T07:52:07;45132.84;;;-143.84;71.27
6032;BME280;3044;43.232;27.972;2024-01-16T07:54:34;45134.75;;;-143.84;72.11
6032;BME280;3044;43.232;27.972;2024-01-16T07:57:01;45195.69;;;-143.84;72.22
6032;BME280;3044;43.232;27.972;2024-01-16T07:59:28;45170.94;;;-143.84;72.36
6032;BME280;3044;43.232;27.972;2024-01-16T08:01:55;45155.69;;;-143.84;72.52
6032;BME280;3044;43.232;27.972;2024-01-16T08:04:23;45172.84;;;-143.84;71.91
6032;BME280;3044;43.232;27.972;2024-01-16T08:06:50;45180.47;;;-143.84;71.58
6032;BME280;3044;43.232;27.972;2024-01-16T08:09:18;45148.09;;;-143.84;72.18
6032;BME280;3044;43.232;27.972;2024-01-16T08:11:46;45178.56;;;-143.84;72.50
6032;BME280;3044;43.232;27.972;2024-01-16T08:14:13;45163.31;;;-143.84;73.24
6032;BME280;3044;43.232;27.972;2024-01-16T08:16:40;45197.59;;;-143.84;73.56
6032;BME280;3044;43.232;27.972;2024-01-16T08:19:07;45151.91;;;-143.84;74.59
6032;BME280;3044;43.232;27.972;2024-01-16T08:21:34;45159.50;;;-143.84;75.68
6032;BME280;3044;43.232;27.972;2024-01-16T08:24:01;45180.47;;;-143.84;75.52
6032;BME280;3044;43.232;27.972;2024-01-16T08:26:30;45180.47;;;-143.84;76.21
6032;BME280;3044;43.232;27.972;2024-01-16T08:28:57;45184.25;;;-143.84;75.84
6032;BME280;3044;43.232;27.972;2024-01-16T08:31:25;45167.13;;;-143.84;75.94
6032;BME280;3044;43.232;27.972;2024-01-16T08:33:52;45174.75;;;-143.84;76.26
6032;BME280;3044;43.232;27.972;2024-01-16T08:36:21;45176.66;;;-143.84;76.37
6032;BME280;3044;43.232;27.972;2024-01-16T08:38:48;45193.78;;;-143.84;77.12
6032;BME280;3044;43.232;27.972;2024-01-16T08:41:16;45176.66;;;-143.84;76.68
6032;BME280;3044;43.232;27.972;2024-01-16T08:43:44;45186.16;;;-143.84;76.49
6032;BME280;3044;43.232;27.972;2024-01-16T08:46:11;45167.13;;;-143.84;75.95
6032;BME280;3044;43.232;27.972;2024-01-16T08:48:38;45174.75;;;-143.84;75.56
6032;BME280;3044;43.232;27.972;2024-01-16T08:51:07;45189.97;;;-143.84;75.86
6032;BME280;3044;43.232;27.972;2024-01-16T08:53:34;45150.00;;;-143.84;75.81
6032;BME280;3044;43.232;27.972;2024-01-16T08:56:02;45189.97;;;-143.84;76.29
6032;BME280;3044;43.232;27.972;2024-01-16T08:58:32;45197.59;;;-143.84;76.41
6032;BME280;3044;43.232;27.972;2024-01-16T09:01:03;45189.97;;;-143.84;76.19
6032;BME280;3044;43.232;27.972;2024-01-16T09:03:31;45163.31;;;-143.84;76.63
6032;BME280;3044;43.232;27.972;2024-01-16T09:05:59;45170.94;;;-143.84;76.61
6032;BME280;3044;43.232;27.972;2024-01-16T09:08:26;45184.25;;;-143.84;76.86
6032;BME280;3044;43.232;27.972;2024-01-16T09:10:54;45197.59;;;-143.84;76.18
6032;BME280;3044;43.232;27.972;2024-01-16T09:13:21;45178.56;;;-143.84;76.06
6032;BME280;3044;43.232;27.972;2024-01-16T09:15:49;45153.81;;;-143.84;75.70
6032;BME280;3044;43.232;27.972;2024-01-16T09:18:17;45170.94;;;-143.84;75.58
6032;BME280;3044;43.232;27.972;2024-01-16T09:20:45;45165.22;;;-143.84;75.26
6032;BME280;3044;43.232;27.972;2024-01-16T09:23:12;45159.50;;;-143.84;74.99
6032;BME280;3044;43.232;27.972;2024-01-16T09:25:39;45186.16;;;-143.84;74.54
6032;BME280;3044;43.232;27.972;2024-01-16T09:28:07;45159.50;;;-143.84;75.11
6032;BME280;3044;43.232;27.972;2024-01-16T09:30:34;45176.66;;;-143.84;74.25
6032;BME280;3044;43.232;27.972;2024-01-16T09:33:01;45188.06;;;-143.84;73.91
6032;BME280;3044;43.232;27.972;2024-01-16T09:35:31;45188.06;;;-143.84;73.50
6032;BME280;3044;43.232;27.972;2024-01-16T09:37:58;45169.03;;;-143.84;73.25
6032;BME280;3044;43.232;27.972;2024-01-16T09:40:25;45170.94;;;-143.84;71.87
6032;BME280;3044;43.232;27.972;2024-01-16T09:42:53;45216.63;;;-143.84;70.86
6032;BME280;3044;43.232;27.972;2024-01-16T09:45:20;45174.75;;;-143.84;70.89
6032;BME280;3044;43.232;27.972;2024-01-16T09:47:50;45169.03;;;-143.84;70.79
6032;BME280;3044;43.232;27.972;2024-01-16T09:50:18;45153.81;;;-143.84;69.13
6032;BME280;3044;43.232;27.972;2024-01-16T09:52:47;45144.28;;;-143.84;68.53
6032;BME280;3044;43.232;27.972;2024-01-16T09:55:14;45159.50;;;-143.84;67.41
6032;BME280;3044;43.232;27.972;2024-01-16T09:57:45;45153.81;;;-143.84;66.30
6032;BME280;3044;43.232;27.972;2024-01-16T10:00:13;45159.50;;;-143.84;66.27
6032;BME280;3044;43.232;27.972;2024-01-16T10:02:41;45157.59;;;-143.84;64.27
6032;BME280;3044;43.232;27.972;2024-01-16T10:05:10;45167.13;;;-143.84;64.68
6032;BME280;3044;43.232;27.972;2024-01-16T10:07:38;45167.13;;;-143.84;64.91
6032;BME280;3044;43.232;27.972;2024-01-16T10:10:08;45195.69;;;-143.84;63.11
6032;BME280;3044;43.232;27.972;2024-01-16T10:12:37;45148.09;;;-143.84;62.25
6032;BME280;3044;43.232;27.972;2024-01-16T10:15:06;45176.66;;;-143.84;61.06
6032;BME280;3044;43.232;27.972;2024-01-16T10:17:38;45170.94;;;-143.84;60.50
6032;BME280;3044;43.232;27.972;2024-01-16T10:20:06;45148.09;;;-143.84;58.11
6032;BME280;3044;43.232;27.972;2024-01-16T10:22:33;45144.28;;;-143.84;57.54
6032;BME280;3044;43.232;27.972;2024-01-16T10:25:10;45144.28;;;-143.84;55.40
6032;BME280;3044;43.232;27.972;2024-01-16T10:27:42;45163.31;;;-143.84;53.97
6032;BME280;3044;43.232;27.972;2024-01-16T10:30:10;45144.28;;;-143.84;52.89
6032;BME280;3044;43.232;27.972;2024-01-16T10:32:39;45167.13;;;-143.84;51.41
6032;BME280;3044;43.232;27.972;2024-01-16T10:35:07;45157.59;;;-143.84;49.71
6032;BME280;3044;43.232;27.972;2024-01-16T10:37:43;45132.84;;;-143.84;49.08
6032;BME280;3044;43.232;27.972;2024-01-16T10:40:14;45144.28;;;-143.84;47.74
6032;BME280;3044;43.232;27.972;2024-01-16T10:42:42;45155.69;;;-143.84;44.02
6032;BME280;3044;43.232;27.972;2024-01-16T10:45:16;45134.75;;;-143.84;43.50
6032;BME280;3044;43.232;27.972;2024-01-16T10:47:46;45129.03;;;-143.84;42.63
6032;BME280;3044;43.232;27.972;2024-01-16T10:50:13;45130.94;;;-143.84;43.19
6032;BME280;3044;43.232;27.972;2024-01-16T10:52:46;45123.34;;;-143.84;41.75
6032;BME280;3044;43.232;27.972;2024-01-16T10:55:19;45119.53;;;-143.84;42.17
6032;BME280;3044;43.232;27.972;2024-01-16T10:57:48;45100.47;;;-143.84;41.03
6032;BME280;3044;43.232;27.972;2024-01-16T11:00:18;45127.13;;;-143.84;40.92
6032;BME280;3044;43.232;27.972;2024-01-16T11:02:56;45098.56;;;-143.84;40.63
6032;BME280;3044;43.232;27.972;2024-01-16T11:05:28;45117.63;;;-143.84;40.28
6032;BME280;3044;43.232;27.972;2024-01-16T11:07:58;45121.44;;;-143.84;39.72
6032;BME280;3044;43.232;27.972;2024-01-16T11:10:28;45125.22;;;-143.84;38.73
6032;BME280;3044;43.232;27.972;2024-01-16T11:12:56;45106.19;;;-143.84;38.37
6032;BME280;3044;43.232;27.972;2024-01-16T11:15:27;45125.22;;;-143.84;38.52
6032;BME280;3044;43.232;27.972;2024-01-16T11:17:55;45140.47;;;-143.84;38.42
6032;BME280;3044;43.232;27.972;2024-01-16T11:20:24;45132.84;;;-143.84;38.00
6032;BME280;3044;43.232;27.972;2024-01-16T11:22:52;45119.53;;;-143.84;38.15
6032;BME280;3044;43.232;27.972;2024-01-16T11:25:32;45119.53;;;-143.84;37.95
6032;BME280;3044;43.232;27.972;2024-01-16T11:28:08;45117.63;;;-143.84;38.18
6032;BME280;3044;43.232;27.972;2024-01-16T11:30:36;45110.00;;;-143.84;37.87
6032;BME280;3044;43.232;27.972;2024-01-16T11:33:04;45121.44;;;-143.84;38.06
6032;BME280;3044;43.232;27.972;2024-01-16T11:35:35;45096.66;;;-143.84;37.67
6032;BME280;3044;43.232;27.972;2024-01-16T11:38:04;45170.94;;;-143.84;37.41
6032;BME280;3044;43.232;27.972;2024-01-16T11:40:34;45129.03;;;-143.84;36.99
6032;BME280;3044;43.232;27.972;2024-01-16T11:43:34;45100.47;;;-143.84;36.49
6032;BME280;3044;43.232;27.972;2024-01-16T11:46:02;45113.81;;;-143.84;36.74
6032;BME280;3044;43.232;27.972;2024-01-16T11:48:29;45127.13;;;-143.84;35.95
6032;BME280;3044;43.232;27.972;2024-01-16T11:50:56;45110.00;;;-143.84;35.88
6032;BME280;3044;43.232;27.972;2024-01-16T11:53:37;45151.91;;;-143.84;36.12
6032;BME280;3044;43.232;27.972;2024-01-16T11:56:24;45110.00;;;-143.84;36.46
6032;BME280;3044;43.232;27.972;2024-01-16T11:59:13;45117.63;;;-143.84;36.68
6032;BME280;3044;43.232;27.972;2024-01-16T12:01:46;45125.22;;;-143.84;36.89
6032;BME280;3044;43.232;27.972;2024-01-16T12:04:17;45123.34;;;-143.84;37.33
6032;BME280;3044;43.232;27.972;2024-01-16T12:06:56;45115.72;;;-143.84;37.49
6032;BME280;3044;43.232;27.972;2024-01-16T12:09:26;45136.66;;;-143.84;38.07
6032;BME280;3044;43.232;27.972;2024-01-16T12:11:58;45146.19;;;-143.84;38.36
6032;BME280;3044;43.232;27.972;2024-01-16T12:14:27;45119.53;;;-143.84;38.83
6032;BME280;3044;43.232;27.972;2024-01-16T12:17:08;45117.63;;;-143.84;39.43
6032;BME280;3044;43.232;27.972;2024-01-16T12:19:35;45151.91;;;-143.84;40.00
6032;BME280;3044;43.232;27.972;2024-01-16T12:22:08;45130.94;;;-143.84;40.90
6032;BME280;3044;43.232;27.972;2024-01-16T12:24:36;45127.13;;;-143.84;41.84
6032;BME280;3044;43.232;27.972;2024-01-16T12:27:05;45123.34;;;-143.84;42.52
6032;BME280;3044;43.232;27.972;2024-01-16T12:29:34;45138.56;;;-143.84;42.65
6032;BME280;3044;43.232;27.972;2024-01-16T12:32:08;45108.09;;;-143.84;43.10
6032;BME280;3044;43.232;27.972;2024-01-16T12:34:43;45138.56;;;-143.84;42.38
6032;BME280;3044;43.232;27.972;2024-01-16T12:37:11;45134.75;;;-143.84;43.16
6032;BME280;3044;43.232;27.972;2024-01-16T12:39:38;45134.75;;;-143.84;43.05
6032;BME280;3044;43.232;27.972;2024-01-16T12:42:09;45134.75;;;-143.84;42.79
6032;BME280;3044;43.232;27.972;2024-01-16T12:44:37;45134.75;;;-143.84;42.45
6032;BME280;3044;43.232;27.972;2024-01-16T12:47:04;45129.03;;;-143.84;42.85
6032;BME280;3044;43.232;27.972;2024-01-16T12:49:32;45117.63;;;-143.84;42.26
6032;BME280;3044;43.232;27.972;2024-01-16T12:52:16;45140.47;;;-143.84;42.44
6032;BME280;3044;43.232;27.972;2024-01-16T12:54:44;45136.66;;;-143.84;41.96
6032;BME280;3044;43.232;27.972;2024-01-16T12:57:18;45146.19;;;-143.84;41.40